Time;durP1;ratioP1;P1;durP2;ratioP2;P2;SDS_P1;SDS_P2;PMS_P1;PMS_P2;Temp;Humidity;BMP_temperature;BMP_pressure;BME280_temperature;BME280_humidity;BME280_pressure;Samples;Min_cycle;Max_cycle;Signal;HPM_P1;HPM_P2
2022/08/09 00:08:54;;;;;;;1.58;0.70;;;19.80;97.20;;;;;;6641354;88;20219;-75
2022/08/09 00:18:54;;;;;;;1.55;0.80;;;19.70;98.60;;;;;;6639658;88;20248;-75
2022/08/09 00:28:55;;;;;;;1.52;0.93;;;19.60;99.90;;;;;;6627389;88;20190;-75
2022/08/09 00:38:56;;;;;;;1.10;0.70;;;19.50;99.90;;;;;;6629407;88;20255;-75
2022/08/09 00:48:57;;;;;;;1.73;0.90;;;19.30;99.90;;;;;;6624074;88;20310;-74
2022/08/09 00:58:58;;;;;;;1.10;0.70;;;19.20;99.90;;;;;;6627547;88;20247;-75
2022/08/09 01:09:01;;;;;;;1.17;0.77;;;19.20;99.90;;;;;;6625096;88;20247;-75
2022/08/09 01:19:47;;;;;;;1.02;0.60;;;19.00;99.90;;;;;;6629903;88;20205;-75
2022/08/09 01:30:03;;;;;;;1.60;0.80;;;18.90;99.90;;;;;;6633509;88;20239;-74
2022/08/09 01:40:06;;;;;;;1.17;0.70;;;18.60;99.90;;;;;;6658563;88;20546;-74
2022/08/09 01:50:08;;;;;;;1.33;0.70;;;18.40;99.90;;;;;;6631292;88;20340;-77
2022/08/09 02:00:10;;;;;;;2.90;0.80;;;18.30;99.90;;;;;;6628472;88;20182;-74
2022/08/09 02:10:19;;;;;;;1.85;0.77;;;18.10;99.90;;;;;;6636582;88;20223;-74
2022/08/09 02:20:20;;;;;;;1.33;0.80;;;18.00;99.90;;;;;;6641015;88;20198;-75
2022/08/09 02:30:22;;;;;;;1.40;0.85;;;18.10;99.90;;;;;;6631659;88;20206;-74
2022/08/09 02:40:24;;;;;;;1.65;1.08;;;17.70;99.90;;;;;;6632151;88;20703;-75
2022/08/09 02:50:36;;;;;;;1.73;0.80;;;17.70;99.90;;;;;;6636895;88;20213;-74
2022/08/09 03:00:39;;;;;;;1.83;1.00;;;17.80;99.90;;;;;;6640740;88;20248;-75
2022/08/09 03:10:40;;;;;;;1.77;0.85;;;17.70;99.90;;;;;;6642788;88;20203;-75
2022/08/09 03:20:42;;;;;;;1.27;0.70;;;17.40;99.90;;;;;;6624479;88;20677;-75
2022/08/09 03:30:44;;;;;;;1.75;0.70;;;17.30;99.90;;;;;;6655649;88;20206;-74
2022/08/09 03:40:45;;;;;;;1.70;0.90;;;17.20;99.90;;;;;;6655876;88;20226;-74
2022/08/09 03:50:46;;;;;;;1.83;0.80;;;17.10;99.90;;;;;;6632344;88;20338;-75
2022/08/09 04:00:48;;;;;;;1.87;0.60;;;17.10;99.90;;;;;;6644531;88;20662;-75
2022/08/09 04:10:49;;;;;;;1.98;0.75;;;17.00;99.90;;;;;;6636037;88;20215;-75
2022/08/09 04:20:50;;;;;;;2.05;0.82;;;17.00;99.90;;;;;;6643153;88;20185;-75
2022/08/09 04:30:50;;;;;;;1.40;0.88;;;16.90;99.90;;;;;;6641701;88;20198;-75
2022/08/09 04:40:51;;;;;;;1.55;0.88;;;16.80;99.90;;;;;;6625211;88;20209;-75
2022/08/09 04:50:51;;;;;;;1.10;0.68;;;16.90;99.90;;;;;;6637356;88;20596;-75
2022/08/09 05:00:52;;;;;;;1.77;0.93;;;17.00;99.90;;;;;;6625600;88;20241;-75
2022/08/09 05:10:53;;;;;;;1.53;0.90;;;17.10;99.90;;;;;;6629581;88;21063;-75
2022/08/09 05:20:53;;;;;;;1.10;0.70;;;17.10;99.90;;;;;;6628258;88;20288;-75
2022/08/09 05:30:54;;;;;;;1.00;0.70;;;17.10;99.90;;;;;;6653485;88;20216;-74
2022/08/09 05:40:55;;;;;;;1.90;0.98;;;17.20;99.90;;;;;;6651400;88;20209;-75
2022/08/09 05:50:55;;;;;;;1.30;0.80;;;17.40;99.90;;;;;;6642571;88;20228;-75
2022/08/09 06:00:57;;;;;;;2.00;0.88;;;17.60;99.90;;;;;;6627154;88;20476;-76
2022/08/09 06:10:58;;;;;;;1.50;0.82;;;17.90;99.90;;;;;;6621468;88;20196;-76
2022/08/09 06:20:58;;;;;;;1.30;0.80;;;18.50;99.90;;;;;;6617985;88;21079;-76
2022/08/09 06:30:59;;;;;;;1.77;0.85;;;19.40;99.90;;;;;;6619190;88;20749;-76
2022/08/09 06:40:59;;;;;;;1.40;0.88;;;19.90;99.90;;;;;;6633460;88;20234;-75
2022/08/09 06:51:00;;;;;;;1.95;1.00;;;20.50;99.90;;;;;;6628885;88;20987;-75
2022/08/09 07:01:00;;;;;;;1.73;1.00;;;21.10;99.90;;;;;;6639126;88;20210;-74
2022/08/09 07:11:04;;;;;;;1.33;0.80;;;21.50;99.90;;;;;;6629233;88;20276;-75
2022/08/09 07:21:05;;;;;;;1.60;1.02;;;21.90;99.90;;;;;;6623542;88;20231;-75
2022/08/09 07:31:05;;;;;;;1.60;1.10;;;22.80;99.90;;;;;;6646747;88;20209;-75
2022/08/09 07:41:06;;;;;;;1.55;0.90;;;23.40;99.40;;;;;;6655727;88;20615;-75
2022/08/09 07:51:06;;;;;;;1.40;0.90;;;24.00;98.00;;;;;;6646296;88;20320;-75
2022/08/09 08:01:07;;;;;;;2.20;1.10;;;24.50;96.50;;;;;;6652073;88;20544;-75
2022/08/09 08:11:07;;;;;;;1.65;0.80;;;25.40;94.90;;;;;;6628970;88;20644;-75
2022/08/09 08:21:08;;;;;;;1.50;0.80;;;26.30;93.20;;;;;;6633065;88;20260;-75
2022/08/09 08:31:08;;;;;;;1.60;0.80;;;26.90;92.40;;;;;;6632460;88;20293;-76
2022/08/09 08:41:09;;;;;;;1.42;0.93;;;27.30;91.40;;;;;;6639046;88;20193;-76
2022/08/09 08:51:11;;;;;;;1.58;0.80;;;28.00;89.80;;;;;;6643684;88;20313;-76
2022/08/09 09:01:12;;;;;;;1.40;0.90;;;28.60;86.70;;;;;;6640123;88;20661;-76
2022/08/09 09:11:12;;;;;;;1.07;0.70;;;28.80;85.00;;;;;;6651254;88;20183;-76
2022/08/09 09:21:13;;;;;;;1.50;1.03;;;29.60;82.50;;;;;;6663413;88;20218;-75
2022/08/09 09:31:17;;;;;;;1.67;0.95;;;30.90;80.00;;;;;;6660208;88;20189;-76
2022/08/09 09:41:26;;;;;;;1.15;0.90;;;30.80;77.60;;;;;;6635934;88;20220;-76
2022/08/09 09:51:28;;;;;;;1.23;0.85;;;31.20;76.20;;;;;;6643119;88;20352;-75
2022/08/09 10:01:29;;;;;;;1.30;0.95;;;31.90;74.80;;;;;;6646963;88;20685;-75
2022/08/09 10:11:31;;;;;;;1.40;0.90;;;32.20;73.30;;;;;;6676734;88;20211;-75
2022/08/09 10:21:33;;;;;;;3.12;1.10;;;32.10;72.80;;;;;;6641743;88;20201;-75
2022/08/09 10:31:34;;;;;;;1.85;1.05;;;32.40;71.50;;;;;;6667386;88;20200;-76
2022/08/09 10:41:35;;;;;;;1.35;0.90;;;33.00;70.90;;;;;;6640159;88;20206;-76
2022/08/09 10:52:09;;;;;;;1.10;0.80;;;33.10;69.20;;;;;;6645206;88;20229;-76
2022/08/09 11:02:17;;;;;;;1.42;1.00;;;33.80;66.90;;;;;;6630631;88;20663;-76
2022/08/09 11:12:28;;;;;;;1.42;0.95;;;34.10;67.00;;;;;;6630213;88;20201;-76
2022/08/09 11:22:43;;;;;;;1.35;0.77;;;34.90;66.20;;;;;;6646743;88;20202;-76
2022/08/09 11:32:49;;;;;;;1.27;0.90;;;35.50;63.90;;;;;;6650002;88;20197;-77
2022/08/09 11:42:53;;;;;;;1.05;0.80;;;36.00;62.80;;;;;;6629205;88;20209;-76
2022/08/09 11:52:59;;;;;;;2.03;0.90;;;36.00;63.70;;;;;;6664468;88;20193;-76
2022/08/09 12:03:01;;;;;;;1.27;0.90;;;35.50;61.90;;;;;;6661135;88;20641;-77
2022/08/09 12:13:01;;;;;;;1.20;0.80;;;35.90;60.30;;;;;;6660838;88;20194;-77
2022/08/09 12:23:02;;;;;;;1.40;0.90;;;36.20;60.70;;;;;;6628387;88;20190;-76
2022/08/09 12:33:03;;;;;;;1.30;1.00;;;36.20;59.10;;;;;;6639758;88;20319;-75
2022/08/09 12:43:04;;;;;;;1.15;0.90;;;36.60;58.20;;;;;;6622398;88;21484;-75
2022/08/09 12:53:21;;;;;;;1.42;1.00;;;35.90;58.70;;;;;;6622058;88;20213;-75
2022/08/09 13:03:27;;;;;;;1.10;0.90;;;36.80;57.70;;;;;;6629650;88;20182;-75
2022/08/09 13:13:33;;;;;;;1.75;1.17;;;36.50;57.10;;;;;;6628212;88;20192;-75
2022/08/09 13:23:41;;;;;;;1.00;0.70;;;36.90;56.40;;;;;;6627969;88;20284;-76
2022/08/09 13:33:42;;;;;;;1.30;0.82;;;37.10;55.40;;;;;;6627438;88;20656;-77
2022/08/09 13:43:42;;;;;;;1.10;0.77;;;36.90;56.20;;;;;;6640721;88;20226;-76
2022/08/09 13:53:43;;;;;;;1.30;0.90;;;37.30;55.20;;;;;;6627085;88;20285;-77
2022/08/09 14:03:43;;;;;;;1.35;0.93;;;37.70;54.60;;;;;;6642929;88;20212;-76
2022/08/09 14:13:44;;;;;;;1.50;1.00;;;37.50;56.50;;;;;;6622460;88;20656;-76
2022/08/09 14:23:46;;;;;;;1.10;0.90;;;35.60;57.00;;;;;;6628467;88;20206;-77
2022/08/09 14:33:46;;;;;;;1.65;0.95;;;36.30;56.80;;;;;;6628884;88;20609;-76
2022/08/09 14:43:47;;;;;;;1.40;1.00;;;36.20;56.90;;;;;;6629029;88;20231;-76
2022/08/09 14:53:47;;;;;;;1.20;0.90;;;35.90;56.80;;;;;;6632442;88;20213;-76
2022/08/09 15:03:48;;;;;;;1.20;0.80;;;35.80;56.90;;;;;;6635408;88;20286;-76
2022/08/09 15:13:49;;;;;;;1.30;1.02;;;35.50;56.90;;;;;;6633939;88;20666;-76
2022/08/09 15:23:50;;;;;;;1.30;0.90;;;35.60;57.40;;;;;;6625716;88;20219;-76
2022/08/09 15:33:50;;;;;;;1.30;1.00;;;34.60;58.10;;;;;;6631071;88;20207;-76
2022/08/09 15:43:51;;;;;;;2.17;1.00;;;35.10;57.60;;;;;;6628194;88;20186;-75
2022/08/09 15:53:51;;;;;;;1.50;1.10;;;35.00;57.70;;;;;;6641690;88;20189;-75
2022/08/09 16:03:52;;;;;;;1.70;0.98;;;34.80;58.80;;;;;;6634107;88;20292;-75
2022/08/09 16:13:52;;;;;;;1.30;0.90;;;34.30;58.90;;;;;;6632060;88;20208;-75
2022/08/09 16:23:53;;;;;;;1.52;1.00;;;33.80;59.70;;;;;;6626290;88;20203;-76
2022/08/09 16:33:54;;;;;;;1.15;0.90;;;33.60;59.10;;;;;;6626830;88;20185;-76
2022/08/09 16:43:56;;;;;;;1.75;1.08;;;33.00;60.70;;;;;;6627401;88;20774;-75
2022/08/09 16:53:56;;;;;;;2.22;1.12;;;32.70;60.70;;;;;;6643967;88;20181;-75
2022/08/09 17:03:57;;;;;;;1.40;1.00;;;32.20;61.30;;;;;;6637566;88;20189;-76
2022/08/09 17:13:57;;;;;;;1.10;0.88;;;31.90;61.70;;;;;;6630604;88;20192;-75
2022/08/09 17:23:58;;;;;;;1.55;0.90;;;31.60;62.10;;;;;;6636224;88;20222;-75
2022/08/09 17:33:59;;;;;;;1.57;1.30;;;31.60;62.30;;;;;;6634486;88;20190;-75
2022/08/09 17:44:00;;;;;;;1.33;0.90;;;32.40;62.00;;;;;;6650125;88;20307;-75
2022/08/09 17:54:01;;;;;;;1.50;1.08;;;32.10;62.40;;;;;;6634401;88;20221;-75
2022/08/09 18:04:02;;;;;;;1.47;1.10;;;30.40;64.20;;;;;;6637175;88;20180;-76
2022/08/09 18:14:03;;;;;;;1.40;0.98;;;29.70;65.20;;;;;;6659884;88;20824;-76
2022/08/09 18:24:04;;;;;;;1.65;0.93;;;29.30;66.10;;;;;;6632137;88;20256;-74
2022/08/09 18:34:04;;;;;;;1.58;0.95;;;28.90;66.80;;;;;;6636953;88;20227;-74
2022/08/09 18:44:05;;;;;;;1.58;0.90;;;28.60;67.40;;;;;;6632802;88;20205;-76
2022/08/09 18:54:06;;;;;;;1.67;1.00;;;28.20;68.20;;;;;;6648972;88;20248;-76
2022/08/09 19:04:07;;;;;;;1.45;0.90;;;27.90;68.40;;;;;;6646956;88;20189;-75
2022/08/09 19:14:08;;;;;;;1.50;1.00;;;27.70;69.00;;;;;;6657270;88;20247;-75
2022/08/09 19:24:09;;;;;;;2.35;1.30;;;27.30;69.60;;;;;;6654021;88;20217;-75
2022/08/09 19:34:09;;;;;;;1.50;1.00;;;27.10;70.50;;;;;;6636289;88;20200;-75
2022/08/09 19:44:10;;;;;;;1.42;0.90;;;26.70;70.90;;;;;;6643668;88;20227;-75
2022/08/09 19:54:10;;;;;;;1.37;0.82;;;26.50;71.50;;;;;;6644507;88;20194;-76
2022/08/09 20:04:11;;;;;;;1.90;1.00;;;26.40;71.90;;;;;;6633821;88;20941;-77
2022/08/09 20:14:12;;;;;;;2.20;1.15;;;26.10;72.50;;;;;;6645930;88;20302;-79
2022/08/09 20:24:13;;;;;;;2.00;0.98;;;25.70;73.20;;;;;;6662171;88;20202;-79
2022/08/09 20:34:13;;;;;;;1.25;0.90;;;25.50;73.80;;;;;;6633331;88;20201;-78
2022/08/09 20:44:14;;;;;;;1.90;0.90;;;25.20;74.30;;;;;;6634568;88;22068;-77
2022/08/09 20:54:14;;;;;;;1.45;0.90;;;25.00;74.70;;;;;;6638622;88;21064;-77
2022/08/09 21:04:16;;;;;;;1.48;1.05;;;24.70;75.10;;;;;;6642968;88;20217;-77
2022/08/09 21:14:17;;;;;;;1.37;0.80;;;24.40;75.90;;;;;;6632748;88;20219;-76
2022/08/09 21:24:17;;;;;;;1.45;0.93;;;24.20;76.50;;;;;;6649548;88;20234;-75
2022/08/09 21:34:18;;;;;;;1.50;0.93;;;24.00;76.90;;;;;;6627124;88;20187;-76
2022/08/09 21:44:18;;;;;;;1.83;0.90;;;23.60;77.70;;;;;;6631077;88;20201;-76
2022/08/09 21:54:19;;;;;;;1.62;1.08;;;23.50;78.30;;;;;;6640228;88;20573;-75
2022/08/09 22:04:20;;;;;;;1.10;0.70;;;23.50;78.40;;;;;;6626385;88;20346;-76
2022/08/09 22:14:21;;;;;;;2.08;1.02;;;23.30;78.90;;;;;;6637000;88;20652;-76
2022/08/09 22:24:21;;;;;;;3.17;0.97;;;23.00;79.70;;;;;;6631659;88;20201;-76
2022/08/09 22:34:22;;;;;;;1.30;0.90;;;23.00;79.90;;;;;;6626785;88;20374;-76
2022/08/09 22:44:22;;;;;;;1.30;0.73;;;22.90;79.90;;;;;;6625994;88;20796;-76
2022/08/09 22:54:24;;;;;;;1.67;0.90;;;22.80;80.70;;;;;;6623460;88;20231;-76
2022/08/09 23:04:24;;;;;;;1.95;1.08;;;22.60;81.30;;;;;;6626259;88;20496;-76
2022/08/09 23:14:25;;;;;;;1.98;1.10;;;22.40;82.30;;;;;;6625744;88;20339;-76
2022/08/09 23:24:25;;;;;;;2.60;1.10;;;22.20;81.90;;;;;;6627696;88;20805;-76
2022/08/09 23:34:26;;;;;;;2.78;1.00;;;22.10;82.70;;;;;;6629307;88;20189;-76
2022/08/09 23:44:27;;;;;;;1.90;0.80;;;22.00;83.60;;;;;;6637323;88;20566;-77
2022/08/09 23:54:27;;;;;;;1.85;1.20;;;21.70;84.90;;;;;;6628930;88;20180;-76
